createdAt,value
2023-07-31T00:02:12.211Z,48.30
2023-07-31T00:07:15.049Z,49.40
2023-07-31T00:12:19.209Z,48.60
2023-07-31T00:17:22.540Z,48.60
2023-07-31T00:22:25.382Z,49.50
2023-07-31T00:27:29.636Z,49.60
2023-07-31T00:32:32.599Z,49.30
2023-07-31T00:37:35.534Z,49.30
2023-07-31T00:42:39.779Z,49.30
2023-07-31T00:47:42.782Z,49.50
2023-07-31T00:52:45.682Z,49.60
2023-07-31T00:57:50.357Z,49.70
2023-07-31T01:02:54.887Z,49.50
2023-07-31T01:08:05.701Z,49.60
2023-07-31T01:13:10.338Z,49.60
2023-07-31T01:18:13.275Z,49.50
2023-07-31T01:23:39.160Z,49.50
2023-07-31T01:28:56.371Z,49.40
2023-07-31T01:34:02.527Z,49.60
2023-07-31T01:39:05.901Z,49.50
2023-07-31T01:44:10.136Z,49.60
2023-07-31T01:49:13.118Z,49.70
2023-07-31T01:54:15.963Z,49.70
2023-07-31T01:59:20.175Z,49.60
2023-07-31T02:04:23.064Z,49.60
2023-07-31T02:09:26.034Z,49.80
2023-07-31T02:14:30.305Z,49.70
2023-07-31T02:19:33.266Z,49.50
2023-07-31T02:24:36.101Z,49.60
2023-07-31T02:29:40.315Z,49.50
2023-07-31T02:34:43.536Z,49.60
2023-07-31T02:39:46.482Z,49.30
2023-07-31T02:44:53.109Z,49.60
2023-07-31T02:49:57.046Z,49.50
2023-07-31T02:55:00.148Z,49.60
2023-07-31T03:00:06.965Z,49.60
2023-07-31T03:05:10.162Z,49.60
2023-07-31T03:10:13.166Z,49.60
2023-07-31T03:15:17.573Z,49.70
2023-07-31T03:20:20.530Z,49.80
2023-07-31T03:25:23.397Z,49.90
2023-07-31T03:30:27.735Z,49.80
2023-07-31T03:35:30.582Z,49.80
2023-07-31T03:40:33.429Z,49.70
2023-07-31T03:45:37.745Z,49.80
2023-07-31T03:50:40.597Z,50.00
2023-07-31T03:55:43.427Z,49.90
2023-07-31T04:00:47.660Z,49.90
2023-07-31T04:05:50.524Z,50.10
2023-07-31T04:10:53.381Z,50.10
2023-07-31T04:15:57.628Z,50.10
2023-07-31T04:21:02.269Z,50.00
2023-07-31T04:26:05.346Z,50.10
2023-07-31T04:31:10.034Z,49.90
2023-07-31T04:36:12.958Z,49.80
2023-07-31T04:41:15.823Z,49.80
2023-07-31T04:46:20.096Z,49.90
2023-07-31T04:51:24.176Z,49.90
2023-07-31T04:56:27.362Z,50.00
2023-07-31T05:01:31.588Z,49.90
2023-07-31T05:06:34.874Z,50.00
2023-07-31T05:11:37.743Z,49.90
2023-07-31T05:16:42.237Z,50.00
2023-07-31T05:21:45.341Z,50.00
2023-07-31T05:26:48.204Z,50.10
2023-07-31T05:31:52.492Z,50.20
2023-07-31T05:36:55.443Z,50.10
2023-07-31T05:41:58.314Z,50.00
2023-07-31T05:47:02.577Z,50.10
2023-07-31T05:52:06.185Z,50.30
2023-07-31T05:57:09.128Z,50.50
2023-07-31T06:02:13.357Z,50.20
2023-07-31T06:07:16.225Z,50.50
2023-07-31T06:12:19.962Z,50.80
2023-07-31T06:17:24.320Z,50.60
2023-07-31T06:22:27.348Z,50.70
2023-07-31T06:27:30.506Z,50.80
2023-07-31T06:32:35.924Z,51.00
2023-07-31T06:37:41.171Z,51.00
2023-07-31T06:42:44.131Z,51.10
2023-07-31T06:47:52.568Z,51.10
2023-07-31T06:52:56.900Z,51.30
2023-07-31T06:58:01.161Z,51.00
2023-07-31T07:03:10.974Z,51.00
2023-07-31T07:08:13.965Z,51.10
2023-07-31T07:13:17.182Z,51.10
2023-07-31T07:18:22.033Z,51.10
2023-07-31T07:23:24.918Z,51.40
2023-07-31T07:28:29.563Z,52.00
2023-07-31T07:33:33.867Z,52.00
2023-07-31T07:38:37.082Z,52.40
2023-07-31T07:43:39.963Z,52.50
2023-07-31T07:48:44.223Z,52.70
2023-07-31T07:53:47.129Z,53.20
2023-07-31T07:58:51.297Z,53.20
2023-07-31T08:03:55.585Z,53.00
2023-07-31T08:08:58.554Z,52.80
2023-07-31T08:14:02.581Z,52.70
2023-07-31T08:19:08.750Z,51.70
2023-07-31T08:24:11.690Z,51.70
2023-07-31T08:29:14.527Z,51.20
2023-07-31T08:34:18.752Z,50.80
2023-07-31T08:39:21.615Z,50.60
2023-07-31T08:44:25.662Z,50.50
2023-07-31T08:49:31.523Z,50.70
2023-07-31T08:54:34.566Z,50.70
2023-07-31T08:59:37.573Z,50.50
2023-07-31T09:04:41.844Z,50.70
2023-07-31T09:09:44.866Z,50.40
2023-07-31T09:14:48.313Z,50.40
2023-07-31T09:19:52.572Z,50.60
2023-07-31T09:24:55.487Z,50.00
2023-07-31T09:30:01.081Z,50.30
2023-07-31T09:35:15.694Z,50.00
2023-07-31T09:40:27.857Z,50.00
2023-07-31T09:45:40.733Z,49.90
2023-07-31T09:50:47.175Z,49.80
2023-07-31T09:55:50.174Z,50.20
2023-07-31T10:00:53.108Z,50.00
2023-07-31T10:05:58.266Z,48.90
2023-07-31T10:11:03.634Z,48.80
2023-07-31T10:16:06.698Z,49.00
2023-07-31T10:21:11.520Z,50.20
2023-07-31T10:26:15.440Z,50.10
2023-07-31T10:31:19.035Z,49.50
2023-07-31T10:36:23.753Z,48.60
2023-07-31T10:41:32.062Z,49.60
2023-07-31T10:46:35.118Z,49.60
2023-07-31T10:51:39.409Z,49.70
2023-07-31T10:56:42.594Z,49.60
2023-07-31T11:01:55.835Z,49.70
2023-07-31T11:07:01.626Z,49.80
2023-07-31T11:12:05.013Z,50.20
2023-07-31T11:17:09.108Z,50.60
2023-07-31T11:22:13.619Z,50.50
2023-07-31T11:27:16.470Z,50.40
2023-07-31T11:32:19.476Z,49.70
2023-07-31T11:37:24.398Z,50.80
2023-07-31T11:42:27.317Z,50.00
2023-07-31T11:47:31.738Z,50.10
2023-07-31T11:52:39.649Z,49.90
2023-07-31T11:57:43.416Z,50.10
2023-07-31T12:02:46.439Z,50.00
2023-07-31T12:07:51.693Z,49.70
2023-07-31T12:13:06.034Z,50.00
2023-07-31T12:18:10.767Z,49.70
2023-07-31T12:23:19.417Z,49.70
2023-07-31T12:28:24.971Z,49.80
2023-07-31T12:33:33.172Z,49.60
2023-07-31T12:38:37.458Z,49.30
2023-07-31T12:43:42.273Z,49.00
2023-07-31T12:48:45.248Z,48.30
2023-07-31T12:53:49.518Z,47.90
2023-07-31T12:58:52.350Z,47.70
2023-07-31T13:03:55.359Z,47.80
2023-07-31T13:08:59.630Z,48.50
2023-07-31T13:14:02.647Z,48.10
2023-07-31T13:19:06.466Z,48.70
2023-07-31T13:24:11.072Z,48.60
2023-07-31T13:29:13.943Z,48.10
2023-07-31T13:34:16.901Z,48.20
2023-07-31T13:39:21.103Z,48.20
2023-07-31T13:44:24.008Z,47.80
2023-07-31T13:49:26.886Z,47.60
2023-07-31T13:54:31.609Z,47.20
2023-07-31T13:59:35.003Z,46.90
2023-07-31T14:04:37.926Z,47.00
2023-07-31T14:09:42.191Z,47.00
2023-07-31T14:14:45.045Z,47.20
2023-07-31T14:19:48.058Z,47.50
2023-07-31T14:24:52.384Z,47.90
2023-07-31T14:29:55.331Z,48.30
2023-07-31T14:34:58.359Z,48.00
2023-07-31T14:40:02.629Z,47.40
2023-07-31T14:45:07.437Z,47.20
2023-07-31T14:50:11.422Z,46.10
2023-07-31T14:55:15.920Z,46.90
2023-07-31T15:00:19.065Z,46.80
2023-07-31T15:05:22.745Z,47.30
2023-07-31T15:10:26.970Z,44.80
2023-07-31T15:15:30.161Z,45.00
2023-07-31T15:20:33.675Z,46.10
2023-07-31T15:25:38.348Z,43.50
2023-07-31T15:30:41.277Z,43.10
2023-07-31T15:35:44.236Z,42.90
2023-07-31T15:40:48.864Z,42.60
2023-07-31T15:45:52.135Z,43.20
2023-07-31T15:50:55.033Z,43.00
2023-07-31T15:55:59.883Z,43.40
2023-07-31T16:01:02.866Z,43.90
2023-07-31T16:06:05.752Z,44.40
2023-07-31T16:11:10.094Z,44.50
2023-07-31T16:16:13.008Z,44.50
2023-07-31T16:21:15.930Z,44.80
2023-07-31T16:26:20.199Z,44.50
2023-07-31T16:31:23.104Z,44.70
2023-07-31T16:36:26.097Z,45.10
2023-07-31T16:41:30.543Z,44.90
2023-07-31T16:46:33.391Z,44.90
2023-07-31T16:51:36.295Z,45.00
2023-07-31T17:01:46.588Z,45.00
2023-07-31T17:06:49.621Z,44.60
2023-07-31T17:11:54.289Z,44.60
2023-07-31T17:16:57.163Z,44.50
2023-07-31T17:22:00.070Z,44.40
2023-07-31T17:27:04.766Z,45.00
2023-07-31T17:32:08.266Z,45.20
2023-07-31T17:37:11.139Z,45.50
2023-07-31T17:42:15.504Z,45.70
2023-07-31T17:47:19.958Z,46.20
2023-07-31T17:52:23.376Z,46.50
2023-07-31T17:57:27.552Z,46.30
2023-07-31T18:02:30.872Z,46.20
2023-07-31T18:07:33.881Z,46.40
2023-07-31T18:12:39.324Z,46.60
2023-07-31T18:17:42.469Z,46.40
2023-07-31T18:22:45.320Z,46.70
2023-07-31T18:27:49.578Z,46.70
2023-07-31T18:32:52.566Z,46.90
2023-07-31T18:37:55.747Z,46.90
2023-07-31T18:42:59.979Z,46.90
2023-07-31T18:48:02.986Z,47.10
2023-07-31T18:53:05.863Z,47.00
2023-07-31T18:58:10.505Z,46.90
2023-07-31T19:03:13.623Z,47.40
2023-07-31T19:08:16.633Z,47.50
2023-07-31T19:13:20.815Z,47.70
2023-07-31T19:18:24.230Z,48.10
2023-07-31T19:23:27.220Z,48.30
2023-07-31T19:28:31.699Z,48.60
2023-07-31T19:33:34.640Z,48.40
2023-07-31T19:38:37.466Z,48.60
2023-07-31T19:43:41.719Z,48.70
2023-07-31T19:48:44.704Z,48.60
2023-07-31T19:53:47.556Z,48.80
2023-07-31T19:58:51.765Z,48.70
2023-07-31T20:03:55.623Z,48.60
2023-07-31T20:08:58.535Z,49.00
2023-07-31T20:14:06.551Z,49.00
2023-07-31T20:19:09.865Z,48.80
2023-07-31T20:24:12.919Z,49.10
2023-07-31T20:29:17.727Z,49.00
2023-07-31T20:34:20.587Z,49.00
2023-07-31T20:39:23.454Z,48.80
2023-07-31T20:44:27.673Z,48.80
2023-07-31T20:49:30.541Z,49.00
2023-07-31T20:54:33.492Z,48.80
2023-07-31T20:59:39.192Z,48.70
2023-07-31T21:04:42.037Z,48.70
2023-07-31T21:09:45.438Z,48.70
2023-07-31T21:14:49.624Z,48.80
2023-07-31T21:19:52.469Z,48.80
2023-07-31T21:24:55.465Z,48.80
2023-07-31T21:30:00.580Z,48.80
2023-07-31T21:35:03.731Z,48.50
2023-07-31T21:40:07.539Z,48.50
2023-07-31T21:45:12.097Z,48.50
2023-07-31T21:50:15.011Z,48.60
2023-07-31T21:55:19.121Z,48.80
2023-07-31T22:00:23.483Z,48.70
2023-07-31T22:05:26.370Z,48.90
2023-07-31T22:10:29.337Z,49.00
2023-07-31T22:15:33.560Z,49.00
2023-07-31T22:20:36.396Z,48.90
2023-07-31T22:25:39.253Z,48.80
2023-07-31T22:30:43.515Z,48.60
2023-07-31T22:35:46.421Z,48.70
2023-07-31T22:40:49.327Z,48.90
2023-07-31T22:45:53.645Z,48.90
2023-07-31T22:50:56.583Z,48.80
2023-07-31T22:56:04.557Z,48.80
2023-07-31T23:01:10.057Z,49.10
2023-07-31T23:06:12.891Z,49.10
2023-07-31T23:11:15.780Z,48.90
2023-07-31T23:16:20.096Z,48.80
2023-07-31T23:21:23.011Z,48.80
2023-07-31T23:26:25.948Z,48.90
2023-07-31T23:31:30.249Z,48.80
2023-07-31T23:36:33.293Z,48.80
2023-07-31T23:41:36.140Z,48.80
2023-07-31T23:46:46.992Z,48.80
2023-07-31T23:51:49.915Z,48.80
2023-07-31T23:56:52.926Z,48.90
